PWSweather.com
Personal Weather Stations
Station Observations
IROGLAN40
AalgaardNO 4330

AalgaardNO 4330

Lat: 58.773, Lon: 5.846

Elevation: 326

Station Type: Davis Vanatge Pro2

www.mavahome.com

High Low Average
Temperature 64.3°F17.9°F 54.2°F12.3°F 59.4°F15.2°F
Dew Point 57.3°F14.1°F 47.9°F8.8°F 54.6°F12.6°F
Winds 15.0 mph -24.1 mph - 1.2 mph 1.9 mph 6.2 mph 10.0 mph
Wind Gusts 26.5 mph42.6 mph -- 10.9 mph17.5 mph
Humidity 90% 70% 84%
Pressure 29.67 in1004.70 in 29.42 in996.30 in -
Precipitation 0.29 in7.40 in - -
Hour Temp Dew Point Humidity Winds Wind Gusts Pressure Precip Precip Rate Daily Precip Total
12:00 AM 57.3°F14.1°C 54.4°F12.4°C 90% 2.3 mph ESE3.7 kmh ESE 3.5 mph5.6 kmh 29.59 in1002.0 mb - 0.00 in0.0 mm 0.00 in0.0 mm
12:10 AM 57.1°F13.9°C 54.2°F12.3°C 90% 4.6 mph ESE7.4 kmh ESE 6.9 mph11.1 kmh 29.59 in1002.0 mb - 0.00 in0.0 mm 0.00 in0.0 mm
12:20 AM 57.1°F13.9°C 54.2°F12.3°C 90% 4.6 mph SE7.4 kmh SE 11.5 mph18.5 kmh 29.59 in1002.0 mb - 0.00 in0.0 mm 0.00 in0.0 mm
12:30 AM 57.1°F13.9°C 54.2°F12.3°C 90% 2.3 mph SE3.7 kmh SE 4.6 mph7.4 kmh 29.59 in1002.0 mb - 0.00 in0.0 mm 0.00 in0.0 mm
12:40 AM 57.2°F14.0°C 54.3°F12.4°C 90% 1.2 mph SE1.9 kmh SE 3.5 mph5.6 kmh 29.60 in1002.4 mb - 0.00 in0.0 mm 0.00 in0.0 mm
12:50 AM 57.3°F14.1°C 54.4°F12.4°C 90% 3.5 mph SE5.6 kmh SE 6.9 mph11.1 kmh 29.60 in1002.4 mb - 0.00 in0.0 mm 0.00 in0.0 mm
01:00 AM 57.3°F14.1°C 54.4°F12.4°C 90% 3.5 mph SSE5.6 kmh SSE 4.6 mph7.4 kmh 29.60 in1002.4 mb - 0.00 in0.0 mm 0.00 in0.0 mm
01:10 AM 57.3°F14.1°C 54.4°F12.4°C 90% 4.6 mph SE7.4 kmh SE 11.5 mph18.5 kmh 29.60 in1002.4 mb - 0.00 in0.0 mm 0.00 in0.0 mm
01:20 AM 57.3°F14.1°C 54.4°F12.4°C 90% 5.8 mph SE9.3 kmh SE 10.4 mph16.7 kmh 29.60 in1002.4 mb - 0.00 in0.0 mm 0.00 in0.0 mm
01:30 AM 57.3°F14.1°C 54.4°F12.4°C 90% 4.6 mph SE7.4 kmh SE 8.1 mph13.0 kmh 29.61 in1002.7 mb - 0.00 in0.0 mm 0.00 in0.0 mm
01:40 AM 57.5°F14.2°C 54.6°F12.6°C 90% 3.5 mph ESE5.6 kmh ESE 5.8 mph9.3 kmh 29.61 in1002.7 mb - 0.00 in0.0 mm 0.00 in0.0 mm
01:50 AM 57.6°F14.2°C 54.7°F12.6°C 90% 2.3 mph S3.7 kmh S 2.3 mph3.7 kmh 29.61 in1002.7 mb - 0.00 in0.0 mm 0.00 in0.0 mm
02:00 AM 57.7°F14.3°C 54.8°F12.7°C 90% 3.5 mph SE5.6 kmh SE 5.8 mph9.3 kmh 29.61 in1002.7 mb - 0.00 in0.0 mm 0.00 in0.0 mm
02:10 AM 57.8°F14.3°C 54.9°F12.7°C 90% 3.5 mph ESE5.6 kmh ESE 6.9 mph11.1 kmh 29.61 in1002.7 mb - 0.00 in0.0 mm 0.00 in0.0 mm
02:20 AM 57.8°F14.3°C 54.9°F12.7°C 90% 3.5 mph SSE5.6 kmh SSE 11.5 mph18.5 kmh 29.62 in1003.0 mb - 0.00 in0.0 mm 0.00 in0.0 mm
02:30 AM 57.9°F14.4°C 55.0°F12.8°C 90% 2.3 mph E3.7 kmh E 3.5 mph5.6 kmh 29.61 in1002.7 mb - 0.00 in0.0 mm 0.00 in0.0 mm
02:40 AM 57.8°F14.3°C 54.9°F12.7°C 90% 4.6 mph SE7.4 kmh SE 8.1 mph13.0 kmh 29.62 in1003.0 mb - 0.00 in0.0 mm 0.00 in0.0 mm
02:50 AM 57.6°F14.2°C 54.7°F12.6°C 90% 2.3 mph ESE3.7 kmh ESE 5.8 mph9.3 kmh 29.62 in1003.0 mb - 0.00 in0.0 mm 0.00 in0.0 mm
03:00 AM 57.7°F14.3°C 54.8°F12.7°C 90% 1.2 mph SSE1.9 kmh SSE -- 29.62 in1003.0 mb - 0.00 in0.0 mm 0.00 in0.0 mm
03:10 AM 57.9°F14.4°C 55.0°F12.8°C 90% 2.3 mph ESE3.7 kmh ESE 4.6 mph7.4 kmh 29.62 in1003.0 mb - 0.00 in0.0 mm 0.00 in0.0 mm
03:20 AM 58.1°F14.5°C 55.2°F12.9°C 90% 3.5 mph SE5.6 kmh SE 5.8 mph9.3 kmh 29.62 in1003.0 mb - 0.00 in0.0 mm 0.00 in0.0 mm
03:30 AM 58.4°F14.7°C 55.5°F13.1°C 90% 2.3 mph SE3.7 kmh SE 2.3 mph3.7 kmh 29.62 in1003.0 mb - 0.00 in0.0 mm 0.00 in0.0 mm
03:40 AM 58.6°F14.8°C 55.7°F13.2°C 90% 3.5 mph S5.6 kmh S 8.1 mph13.0 kmh 29.62 in1003.0 mb - 0.00 in0.0 mm 0.00 in0.0 mm
03:50 AM 58.9°F14.9°C 56.0°F13.3°C 90% 4.6 mph SE7.4 kmh SE 6.9 mph11.1 kmh 29.62 in1003.0 mb - 0.00 in0.0 mm 0.00 in0.0 mm
04:00 AM 59.1°F15.1°C 56.2°F13.4°C 90% 4.6 mph SE7.4 kmh SE 10.4 mph16.7 kmh 29.62 in1003.0 mb - 0.00 in0.0 mm 0.00 in0.0 mm
04:20 AM 59.4°F15.2°C 56.2°F13.4°C 89% 3.5 mph WSW5.6 kmh WSW 6.9 mph11.1 kmh 29.61 in1002.7 mb - 0.00 in0.0 mm 0.00 in0.0 mm
04:30 AM 59.5°F15.3°C 56.3°F13.5°C 89% 4.6 mph SE7.4 kmh SE 9.2 mph14.8 kmh 29.61 in1002.7 mb - 0.00 in0.0 mm 0.00 in0.0 mm
04:40 AM 59.5°F15.3°C 56.3°F13.5°C 89% 3.5 mph SSE5.6 kmh SSE 6.9 mph11.1 kmh 29.62 in1003.0 mb - 0.00 in0.0 mm 0.00 in0.0 mm
04:50 AM 59.6°F15.3°C 56.4°F13.6°C 89% 3.5 mph SE5.6 kmh SE 4.6 mph7.4 kmh 29.62 in1003.0 mb - 0.00 in0.0 mm 0.00 in0.0 mm
05:00 AM 59.6°F15.3°C 56.4°F13.6°C 89% 4.6 mph ESE7.4 kmh ESE 5.8 mph9.3 kmh 29.62 in1003.0 mb - 0.00 in0.0 mm 0.00 in0.0 mm
05:10 AM 59.5°F15.3°C 56.3°F13.5°C 89% 5.8 mph SSE9.3 kmh SSE 8.1 mph13.0 kmh 29.62 in1003.0 mb - 0.01 in0.3 mm 0.01 in0.3 mm
05:20 AM 59.3°F15.2°C 56.1°F13.4°C 89% 4.6 mph SE7.4 kmh SE 9.2 mph14.8 kmh 29.62 in1003.0 mb - 0.01 in0.3 mm 0.02 in0.5 mm
05:30 AM 59.1°F15.1°C 56.2°F13.4°C 90% 5.8 mph E9.3 kmh E 5.8 mph9.3 kmh 29.62 in1003.0 mb - 0.01 in0.3 mm 0.02 in0.5 mm
05:40 AM 59.0°F15.0°C 56.0°F13.3°C 90% 3.5 mph E5.6 kmh E 9.2 mph14.8 kmh 29.62 in1003.0 mb - 0.00 in0.0 mm 0.02 in0.5 mm
05:50 AM 58.8°F14.9°C 55.9°F13.3°C 90% 2.3 mph E3.7 kmh E 4.6 mph7.4 kmh 29.62 in1003.0 mb - 0.00 in0.0 mm 0.02 in0.5 mm
06:00 AM 58.7°F14.8°C 55.8°F13.2°C 90% 5.8 mph ESE9.3 kmh ESE 9.2 mph14.8 kmh 29.59 in1002.0 mb - 0.01 in0.3 mm 0.03 in0.8 mm
06:10 AM 58.6°F14.8°C 55.7°F13.2°C 90% 3.5 mph S5.6 kmh S 3.5 mph5.6 kmh 29.59 in1002.0 mb - 0.00 in0.0 mm 0.03 in0.8 mm
06:20 AM 58.5°F14.7°C 55.6°F13.1°C 90% 1.2 mph SW1.9 kmh SW 3.5 mph5.6 kmh 29.62 in1003.0 mb - 0.00 in0.0 mm 0.03 in0.8 mm
06:30 AM 58.6°F14.8°C 55.7°F13.2°C 90% 2.3 mph ESE3.7 kmh ESE 6.9 mph11.1 kmh 29.62 in1003.0 mb - 0.00 in0.0 mm 0.03 in0.8 mm
06:40 AM 58.7°F14.8°C 55.8°F13.2°C 90% 4.6 mph SE7.4 kmh SE 10.4 mph16.7 kmh 29.62 in1003.0 mb - 0.00 in0.0 mm 0.03 in0.8 mm
06:50 AM 58.8°F14.9°C 55.9°F13.3°C 90% 3.5 mph SE5.6 kmh SE 8.1 mph13.0 kmh 29.62 in1003.0 mb - 0.00 in0.0 mm 0.03 in0.8 mm
07:00 AM 58.9°F14.9°C 55.9°F13.3°C 90% 4.6 mph SE7.4 kmh SE 9.2 mph14.8 kmh 29.62 in1003.0 mb - 0.00 in0.0 mm 0.03 in0.8 mm
07:10 AM 58.9°F14.9°C 56.0°F13.3°C 90% 3.5 mph SSE5.6 kmh SSE 3.5 mph5.6 kmh 29.62 in1003.0 mb - 0.00 in0.0 mm 0.03 in0.8 mm
07:20 AM 59.0°F15.0°C 56.0°F13.3°C 90% 3.5 mph ESE5.6 kmh ESE 4.6 mph7.4 kmh 29.63 in1003.4 mb - 0.00 in0.0 mm 0.03 in0.8 mm
07:30 AM 59.0°F15.0°C 56.1°F13.4°C 90% 4.6 mph S7.4 kmh S 5.8 mph9.3 kmh 29.64 in1003.7 mb - 0.00 in0.0 mm 0.03 in0.8 mm
07:40 AM 59.0°F15.0°C 56.1°F13.4°C 90% 3.5 mph SE5.6 kmh SE 6.9 mph11.1 kmh 29.65 in1004.1 mb - 0.00 in0.0 mm 0.03 in0.8 mm
07:50 AM 59.1°F15.1°C 56.2°F13.4°C 90% 6.9 mph SE11.1 kmh SE 12.7 mph20.4 kmh 29.65 in1004.1 mb - 0.00 in0.0 mm 0.03 in0.8 mm
08:00 AM 59.1°F15.1°C 56.2°F13.4°C 90% 5.8 mph SE9.3 kmh SE 8.1 mph13.0 kmh 29.64 in1003.7 mb - 0.00 in0.0 mm 0.03 in0.8 mm
08:10 AM 59.2°F15.1°C 56.3°F13.5°C 90% 4.6 mph E7.4 kmh E 10.4 mph16.7 kmh 29.64 in1003.7 mb - 0.00 in0.0 mm 0.03 in0.8 mm
08:20 AM 59.1°F15.1°C 56.2°F13.4°C 90% 4.6 mph ESE7.4 kmh ESE 9.2 mph14.8 kmh 29.64 in1003.7 mb - 0.00 in0.0 mm 0.03 in0.8 mm
08:30 AM 59.3°F15.2°C 56.4°F13.6°C 90% 2.3 mph SSE3.7 kmh SSE 8.1 mph13.0 kmh 29.64 in1003.7 mb - 0.00 in0.0 mm 0.03 in0.8 mm
08:40 AM 59.3°F15.2°C 56.4°F13.6°C 90% 4.6 mph SE7.4 kmh SE 10.4 mph16.7 kmh 29.65 in1004.1 mb - 0.00 in0.0 mm 0.03 in0.8 mm
08:50 AM 59.4°F15.2°C 56.5°F13.6°C 90% 2.3 mph SE3.7 kmh SE 4.6 mph7.4 kmh 29.66 in1004.4 mb - 0.00 in0.0 mm 0.03 in0.8 mm
09:00 AM 59.4°F15.2°C 56.2°F13.4°C 89% 4.6 mph SE7.4 kmh SE 6.9 mph11.1 kmh 29.66 in1004.4 mb - 0.00 in0.0 mm 0.03 in0.8 mm
09:10 AM 59.6°F15.3°C 56.4°F13.6°C 89% 4.6 mph SE7.4 kmh SE 9.2 mph14.8 kmh 29.66 in1004.4 mb - 0.00 in0.0 mm 0.03 in0.8 mm
09:20 AM 60.0°F15.6°C 56.7°F13.7°C 89% 3.5 mph SSW5.6 kmh SSW 4.6 mph7.4 kmh 29.66 in1004.4 mb - 0.00 in0.0 mm 0.03 in0.8 mm
09:30 AM 59.9°F15.5°C 56.6°F13.7°C 89% 4.6 mph S7.4 kmh S 9.2 mph14.8 kmh 29.67 in1004.7 mb - 0.00 in0.0 mm 0.03 in0.8 mm
09:40 AM 60.2°F15.7°C 56.9°F13.8°C 89% 5.8 mph SE9.3 kmh SE 12.7 mph20.4 kmh 29.67 in1004.7 mb - 0.00 in0.0 mm 0.03 in0.8 mm
09:50 AM 60.3°F15.7°C 56.7°F13.7°C 88% 5.8 mph SE9.3 kmh SE 11.5 mph18.5 kmh 29.67 in1004.7 mb - 0.00 in0.0 mm 0.03 in0.8 mm
10:00 AM 60.6°F15.9°C 57.0°F13.9°C 88% 4.6 mph SSE7.4 kmh SSE 10.4 mph16.7 kmh 29.67 in1004.7 mb - 0.00 in0.0 mm 0.03 in0.8 mm
10:10 AM 61.1°F16.2°C 57.2°F14.0°C 87% 3.5 mph SE5.6 kmh SE 6.9 mph11.1 kmh 29.66 in1004.4 mb - 0.00 in0.0 mm 0.03 in0.8 mm
10:20 AM 62.5°F16.9°C 57.3°F14.1°C 83% 6.9 mph SE11.1 kmh SE 11.5 mph18.5 kmh 29.66 in1004.4 mb - 0.00 in0.0 mm 0.03 in0.8 mm
10:30 AM 62.7°F17.1°C 56.4°F13.6°C 80% 2.3 mph SSW3.7 kmh SSW 3.5 mph5.6 kmh 29.66 in1004.4 mb - 0.00 in0.0 mm 0.03 in0.8 mm
10:40 AM 61.6°F16.4°C 55.1°F12.8°C 79% 3.5 mph S5.6 kmh S 4.6 mph7.4 kmh 29.66 in1004.4 mb - 0.00 in0.0 mm 0.03 in0.8 mm
10:50 AM 62.3°F16.8°C 55.7°F13.2°C 79% 3.5 mph S5.6 kmh S 6.9 mph11.1 kmh 29.65 in1004.1 mb - 0.00 in0.0 mm 0.03 in0.8 mm
11:00 AM 62.2°F16.8°C 55.3°F12.9°C 78% 4.6 mph S7.4 kmh S 11.5 mph18.5 kmh 29.65 in1004.1 mb - 0.00 in0.0 mm 0.03 in0.8 mm
11:10 AM 63.0°F17.2°C 55.3°F12.9°C 76% 3.5 mph S5.6 kmh S 4.6 mph7.4 kmh 29.63 in1003.4 mb - 0.00 in0.0 mm 0.03 in0.8 mm
11:20 AM 62.9°F17.2°C 54.8°F12.7°C 75% 3.5 mph S5.6 kmh S 3.5 mph5.6 kmh 29.64 in1003.7 mb - 0.00 in0.0 mm 0.03 in0.8 mm
11:30 AM 62.5°F16.9°C 54.5°F12.5°C 75% 5.8 mph SSE9.3 kmh SSE 6.9 mph11.1 kmh 29.63 in1003.4 mb - 0.00 in0.0 mm 0.03 in0.8 mm
11:40 AM 62.6°F17.0°C 54.9°F12.7°C 76% 4.6 mph S7.4 kmh S 11.5 mph18.5 kmh 29.62 in1003.0 mb - 0.00 in0.0 mm 0.03 in0.8 mm
11:50 AM 63.2°F17.3°C 54.4°F12.4°C 73% 4.6 mph SSE7.4 kmh SSE 11.5 mph18.5 kmh 29.62 in1003.0 mb - 0.00 in0.0 mm 0.03 in0.8 mm
12:00 PM 63.6°F17.6°C 54.4°F12.4°C 72% 4.6 mph S7.4 kmh S 10.4 mph16.7 kmh 29.62 in1003.0 mb - 0.00 in0.0 mm 0.03 in0.8 mm
12:10 PM 63.8°F17.7°C 55.0°F12.8°C 73% 6.9 mph S11.1 kmh S 10.4 mph16.7 kmh 29.62 in1003.0 mb - 0.00 in0.0 mm 0.03 in0.8 mm
12:20 PM 64.1°F17.8°C 54.1°F12.3°C 70% 6.9 mph SE11.1 kmh SE 11.5 mph18.5 kmh 29.62 in1003.0 mb - 0.00 in0.0 mm 0.03 in0.8 mm
12:30 PM 64.1°F17.8°C 54.1°F12.3°C 70% 6.9 mph SE11.1 kmh SE 13.8 mph22.2 kmh 29.62 in1003.0 mb - 0.00 in0.0 mm 0.03 in0.8 mm
12:40 PM 64.3°F17.9°C 54.3°F12.4°C 70% 5.8 mph SE9.3 kmh SE 11.5 mph18.5 kmh 29.61 in1002.7 mb - 0.00 in0.0 mm 0.03 in0.8 mm
12:50 PM 64.3°F17.9°C 54.7°F12.6°C 71% 5.8 mph SE9.3 kmh SE 9.2 mph14.8 kmh 29.60 in1002.4 mb - 0.00 in0.0 mm 0.03 in0.8 mm
01:00 PM 63.2°F17.3°C 54.0°F12.2°C 72% 8.1 mph SE13.0 kmh SE 15.0 mph24.1 kmh 29.59 in1002.0 mb - 0.00 in0.0 mm 0.03 in0.8 mm
01:10 PM 63.4°F17.4°C 53.4°F11.9°C 70% 10.4 mph SE16.7 kmh SE 18.4 mph29.6 kmh 29.58 in1001.7 mb - 0.00 in0.0 mm 0.03 in0.8 mm
01:20 PM 63.2°F17.3°C 53.6°F12.0°C 71% 9.2 mph SE14.8 kmh SE 15.0 mph24.1 kmh 29.57 in1001.4 mb - 0.00 in0.0 mm 0.03 in0.8 mm
01:30 PM 63.5°F17.5°C 54.3°F12.4°C 72% 6.9 mph SSE11.1 kmh SSE 10.4 mph16.7 kmh 29.58 in1001.7 mb - 0.00 in0.0 mm 0.03 in0.8 mm
01:40 PM 62.6°F17.0°C 53.8°F12.1°C 73% 8.1 mph SE13.0 kmh SE 11.5 mph18.5 kmh 29.57 in1001.4 mb - 0.00 in0.0 mm 0.03 in0.8 mm
01:50 PM 62.2°F16.8°C 53.4°F11.9°C 73% 8.1 mph SSE13.0 kmh SSE 12.7 mph20.4 kmh 29.55 in1000.7 mb - 0.00 in0.0 mm 0.03 in0.8 mm
02:00 PM 62.0°F16.7°C 53.6°F12.0°C 74% 8.1 mph S13.0 kmh S 15.0 mph24.1 kmh 29.55 in1000.7 mb - 0.00 in0.0 mm 0.03 in0.8 mm
02:10 PM 61.7°F16.5°C 53.7°F12.1°C 75% 11.5 mph SE18.5 kmh SE 13.8 mph22.2 kmh 29.55 in1000.7 mb - 0.00 in0.0 mm 0.03 in0.8 mm
02:20 PM 61.3°F16.3°C 53.7°F12.1°C 76% 8.1 mph SE13.0 kmh SE 13.8 mph22.2 kmh 29.55 in1000.7 mb - 0.00 in0.0 mm 0.03 in0.8 mm
02:30 PM 61.2°F16.2°C 53.9°F12.2°C 77% 10.4 mph SSE16.7 kmh SSE 15.0 mph24.1 kmh 29.55 in1000.7 mb - 0.00 in0.0 mm 0.03 in0.8 mm
02:40 PM 61.0°F16.1°C 53.7°F12.1°C 77% 8.1 mph SE13.0 kmh SE 12.7 mph20.4 kmh 29.53 in1000.0 mb - 0.00 in0.0 mm 0.03 in0.8 mm
02:50 PM 61.0°F16.1°C 54.4°F12.4°C 79% 8.1 mph SSE13.0 kmh SSE 12.7 mph20.4 kmh 29.53 in1000.0 mb - 0.00 in0.0 mm 0.03 in0.8 mm
03:00 PM 61.0°F16.1°C 54.7°F12.6°C 80% 11.5 mph SE18.5 kmh SE 15.0 mph24.1 kmh 29.53 in1000.0 mb - 0.00 in0.0 mm 0.03 in0.8 mm
03:10 PM 61.0°F16.1°C 55.8°F13.2°C 83% 15.0 mph SSE24.1 kmh SSE 19.6 mph31.5 kmh 29.52 in999.7 mb - 0.00 in0.0 mm 0.03 in0.8 mm
03:20 PM 61.1°F16.2°C 56.2°F13.4°C 84% 9.2 mph SE14.8 kmh SE 19.6 mph31.5 kmh 29.52 in999.7 mb - 0.00 in0.0 mm 0.03 in0.8 mm
03:30 PM 61.2°F16.2°C 56.7°F13.7°C 85% 10.4 mph SE16.7 kmh SE 13.8 mph22.2 kmh 29.50 in999.0 mb - 0.01 in0.3 mm 0.04 in1.0 mm
03:40 PM 60.7°F15.9°C 56.8°F13.8°C 87% 9.2 mph SE14.8 kmh SE 13.8 mph22.2 kmh 29.50 in999.0 mb - 0.01 in0.3 mm 0.05 in1.3 mm
03:50 PM 60.4°F15.8°C 56.5°F13.6°C 87% 9.2 mph SE14.8 kmh SE 16.1 mph25.9 kmh 29.49 in998.6 mb - 0.00 in0.0 mm 0.05 in1.3 mm
04:00 PM 60.4°F15.8°C 56.5°F13.6°C 87% 9.2 mph S14.8 kmh S 13.8 mph22.2 kmh 29.49 in998.6 mb - 0.00 in0.0 mm 0.05 in1.3 mm
04:10 PM 60.1°F15.6°C 56.2°F13.4°C 87% 10.4 mph S16.7 kmh S 17.3 mph27.8 kmh 29.50 in999.0 mb - 0.00 in0.0 mm 0.05 in1.3 mm
04:20 PM 60.4°F15.8°C 56.2°F13.4°C 86% 12.7 mph SE20.4 kmh SE 25.3 mph40.7 kmh 29.48 in998.3 mb - 0.00 in0.0 mm 0.05 in1.3 mm
04:30 PM 60.5°F15.8°C 56.0°F13.3°C 85% 10.4 mph SE16.7 kmh SE 24.2 mph38.9 kmh 29.48 in998.3 mb - 0.00 in0.0 mm 0.05 in1.3 mm
04:40 PM 60.6°F15.9°C 56.1°F13.4°C 85% 10.4 mph SE16.7 kmh SE 19.6 mph31.5 kmh 29.46 in997.6 mb - 0.00 in0.0 mm 0.05 in1.3 mm
04:50 PM 60.7°F15.9°C 56.2°F13.4°C 85% 12.7 mph SE20.4 kmh SE 17.3 mph27.8 kmh 29.48 in998.3 mb - 0.00 in0.0 mm 0.05 in1.3 mm
05:00 PM 60.7°F15.9°C 55.8°F13.2°C 84% 11.5 mph SE18.5 kmh SE 18.4 mph29.6 kmh 29.48 in998.3 mb - 0.00 in0.0 mm 0.05 in1.3 mm
05:10 PM 60.6°F15.9°C 55.8°F13.2°C 84% 12.7 mph SE20.4 kmh SE 18.4 mph29.6 kmh 29.48 in998.3 mb - 0.00 in0.0 mm 0.05 in1.3 mm
05:20 PM 60.4°F15.8°C 55.9°F13.3°C 85% 12.7 mph SSE20.4 kmh SSE 17.3 mph27.8 kmh 29.46 in997.6 mb - 0.01 in0.3 mm 0.06 in1.5 mm
05:30 PM 59.8°F15.4°C 55.9°F13.3°C 87% 10.4 mph SE16.7 kmh SE 21.9 mph35.2 kmh 29.45 in997.3 mb - 0.05 in1.3 mm 0.10 in2.5 mm
05:40 PM 59.4°F15.2°C 55.8°F13.2°C 88% 8.1 mph SSE13.0 kmh SSE 16.1 mph25.9 kmh 29.43 in996.6 mb - 0.06 in1.5 mm 0.16 in4.1 mm
05:50 PM 59.2°F15.1°C 56.0°F13.3°C 89% 12.7 mph SSE20.4 kmh SSE 18.4 mph29.6 kmh 29.43 in996.6 mb - 0.04 in1.0 mm 0.19 in4.8 mm
06:00 PM 59.3°F15.2°C 56.1°F13.4°C 89% 11.5 mph SE18.5 kmh SE 18.4 mph29.6 kmh 29.43 in996.6 mb - 0.02 in0.5 mm 0.21 in5.3 mm
06:10 PM 59.5°F15.3°C 56.3°F13.5°C 89% 11.5 mph SSE18.5 kmh SSE 15.0 mph24.1 kmh 29.42 in996.3 mb - 0.01 in0.3 mm 0.21 in5.3 mm
06:20 PM 59.8°F15.4°C 56.8°F13.8°C 90% 9.2 mph SE14.8 kmh SE 16.1 mph25.9 kmh 29.42 in996.3 mb - 0.00 in0.0 mm 0.21 in5.3 mm
06:30 PM 60.0°F15.6°C 56.8°F13.8°C 89% 11.5 mph S18.5 kmh S 24.2 mph38.9 kmh 29.43 in996.6 mb - 0.00 in0.0 mm 0.21 in5.3 mm
06:40 PM 60.1°F15.6°C 56.8°F13.8°C 89% 10.4 mph SE16.7 kmh SE 17.3 mph27.8 kmh 29.42 in996.3 mb - 0.00 in0.0 mm 0.21 in5.3 mm
06:50 PM 60.4°F15.8°C 56.8°F13.8°C 88% 12.7 mph SE20.4 kmh SE 21.9 mph35.2 kmh 29.43 in996.6 mb - 0.00 in0.0 mm 0.21 in5.3 mm
07:00 PM 60.7°F15.9°C 57.1°F13.9°C 88% 13.8 mph SE22.2 kmh SE 26.5 mph42.6 kmh 29.43 in996.6 mb - 0.00 in0.0 mm 0.21 in5.3 mm
07:10 PM 60.6°F15.9°C 57.0°F13.9°C 88% 13.8 mph SSE22.2 kmh SSE 13.8 mph22.2 kmh 29.42 in996.3 mb - 0.00 in0.0 mm 0.21 in5.3 mm
07:20 PM 60.6°F15.9°C 56.7°F13.7°C 87% 9.2 mph SE14.8 kmh SE 26.5 mph42.6 kmh 29.42 in996.3 mb - 0.00 in0.0 mm 0.21 in5.3 mm
07:30 PM 60.5°F15.8°C 56.3°F13.5°C 86% 11.5 mph SSE18.5 kmh SSE 12.7 mph20.4 kmh 29.43 in996.6 mb - 0.00 in0.0 mm 0.21 in5.3 mm
07:40 PM 60.0°F15.6°C 55.2°F12.9°C 84% 6.9 mph W11.1 kmh W 12.7 mph20.4 kmh 29.44 in997.0 mb - 0.00 in0.0 mm 0.21 in5.3 mm
07:50 PM 59.9°F15.5°C 54.7°F12.6°C 83% 5.8 mph S9.3 kmh S 11.5 mph18.5 kmh 29.44 in997.0 mb - 0.00 in0.0 mm 0.21 in5.3 mm
08:00 PM 59.5°F15.3°C 54.3°F12.4°C 83% 4.6 mph S7.4 kmh S 9.2 mph14.8 kmh 29.45 in997.3 mb - 0.01 in0.3 mm 0.22 in5.6 mm
08:10 PM 58.2°F14.6°C 52.4°F11.3°C 81% 5.8 mph SSE9.3 kmh SSE 10.4 mph16.7 kmh 29.46 in997.6 mb - 0.00 in0.0 mm 0.22 in5.6 mm
08:20 PM 58.5°F14.7°C 52.3°F11.3°C 80% 8.1 mph SSE13.0 kmh SSE 11.5 mph18.5 kmh 29.46 in997.6 mb - 0.00 in0.0 mm 0.22 in5.6 mm
08:30 PM 58.5°F14.7°C 52.3°F11.3°C 80% 4.6 mph SSE7.4 kmh SSE 10.4 mph16.7 kmh 29.48 in998.3 mb - 0.00 in0.0 mm 0.22 in5.6 mm
08:40 PM 57.8°F14.3°C 51.0°F10.6°C 78% 6.9 mph SE11.1 kmh SE 10.4 mph16.7 kmh 29.49 in998.6 mb - 0.00 in0.0 mm 0.22 in5.6 mm
08:50 PM 57.3°F14.1°C 49.8°F9.9°C 76% 5.8 mph WSW9.3 kmh WSW 9.2 mph14.8 kmh 29.49 in998.6 mb - 0.00 in0.0 mm 0.22 in5.6 mm
09:00 PM 57.1°F13.9°C 50.0°F10.0°C 77% 4.6 mph SE7.4 kmh SE 11.5 mph18.5 kmh 29.49 in998.6 mb - 0.00 in0.0 mm 0.22 in5.6 mm
09:10 PM 57.0°F13.9°C 49.9°F9.9°C 77% 3.5 mph NE5.6 kmh NE 8.1 mph13.0 kmh 29.50 in999.0 mb - 0.00 in0.0 mm 0.22 in5.6 mm
09:20 PM 56.9°F13.8°C 49.8°F9.9°C 77% 6.9 mph SE11.1 kmh SE 10.4 mph16.7 kmh 29.50 in999.0 mb - 0.00 in0.0 mm 0.22 in5.6 mm
09:30 PM 56.7°F13.7°C 49.6°F9.8°C 77% 4.6 mph NE7.4 kmh NE 8.1 mph13.0 kmh 29.50 in999.0 mb - 0.00 in0.0 mm 0.22 in5.6 mm
09:40 PM 56.4°F13.6°C 49.6°F9.8°C 78% 6.9 mph NW11.1 kmh NW 15.0 mph24.1 kmh 29.51 in999.3 mb - 0.00 in0.0 mm 0.22 in5.6 mm
09:50 PM 56.1°F13.4°C 49.3°F9.6°C 78% 5.8 mph NW9.3 kmh NW 13.8 mph22.2 kmh 29.51 in999.3 mb - 0.00 in0.0 mm 0.22 in5.6 mm
10:00 PM 55.9°F13.3°C 48.8°F9.3°C 77% 9.2 mph NW14.8 kmh NW 11.5 mph18.5 kmh 29.51 in999.3 mb - 0.00 in0.0 mm 0.22 in5.6 mm
10:10 PM 55.0°F12.8°C 48.9°F9.4°C 80% 6.9 mph WNW11.1 kmh WNW 9.2 mph14.8 kmh 29.52 in999.7 mb - 0.02 in0.5 mm 0.24 in6.1 mm
10:20 PM 54.3°F12.4°C 48.9°F9.4°C 82% 6.9 mph WNW11.1 kmh WNW 18.4 mph29.6 kmh 29.52 in999.7 mb - 0.00 in0.0 mm 0.24 in6.1 mm
10:30 PM 54.5°F12.5°C 49.1°F9.5°C 82% 6.9 mph NW11.1 kmh NW 11.5 mph18.5 kmh 29.52 in999.7 mb - 0.01 in0.3 mm 0.24 in6.1 mm
10:40 PM 54.3°F12.4°C 49.2°F9.6°C 83% 4.6 mph E7.4 kmh E 9.2 mph14.8 kmh 29.52 in999.7 mb - 0.00 in0.0 mm 0.24 in6.1 mm
10:50 PM 54.2°F12.3°C 49.1°F9.5°C 83% 6.9 mph NW11.1 kmh NW 17.3 mph27.8 kmh 29.52 in999.7 mb - 0.00 in0.0 mm 0.24 in6.1 mm
11:00 PM 54.4°F12.4°C 49.0°F9.4°C 82% 3.5 mph NW5.6 kmh NW 8.1 mph13.0 kmh 29.52 in999.7 mb - 0.00 in0.0 mm 0.29 in7.4 mm
11:10 PM 54.3°F12.4°C 48.9°F9.4°C 82% 6.9 mph W11.1 kmh W 13.8 mph22.2 kmh 29.53 in1000.0 mb - 0.00 in0.0 mm 0.29 in7.4 mm
11:20 PM 54.4°F12.4°C 48.0°F8.9°C 79% 8.1 mph WNW13.0 kmh WNW 9.2 mph14.8 kmh 29.53 in1000.0 mb - 0.00 in0.0 mm 0.29 in7.4 mm
11:30 PM 54.6°F12.6°C 48.2°F9.0°C 79% 5.8 mph NW9.3 kmh NW 9.2 mph14.8 kmh 29.53 in1000.0 mb - 0.00 in0.0 mm 0.29 in7.4 mm
11:40 PM 54.5°F12.5°C 48.1°F8.9°C 79% 3.5 mph S5.6 kmh S 5.8 mph9.3 kmh 29.53 in1000.0 mb - 0.00 in0.0 mm 0.29 in7.4 mm
11:50 PM 54.3°F12.4°C 47.9°F8.8°C 79% 5.8 mph NW9.3 kmh NW 13.8 mph22.2 kmh 29.54 in1000.3 mb - 0.00 in0.0 mm 0.29 in7.4 mm